首页
METAR-TAF:

METAR-TAF

机场 :

芹苴國際機場

芹苴市, 越南

纬度: 10-05-07N, 经度: 105-42-43E, 海拔: 3米

当前天气观测

该预报发布于47分钟前的22:00 UTC
风速2节,风向西转西南
温度 27°C
湿度 100%
气压 1007 hPa
能见度10公里或以上
少量云层高于1500英尺
散云层高于4000英尺

METAR: VVCT 282200Z 24002KT 9999 FEW015 SCT040 27/27 Q1007 NOSIG

时间: 05:47 (22:47 UTC)

预报

该预报发布于5小时和47分钟前的17:00 UTC
预报有效从28日的 18点(UTC)到 29日的 18点(UTC)
风速3节,风向多变
能见度10公里或以上
散云层高于1700英尺
散云层高于4000英尺
成为
从 29日的 00点(UTC)到 29日的 01点(UTC)
风速10节,风向西南
短暂存在
从 29日的 04点(UTC)到 29日的 09点(UTC)
能見度: 4000
散云层高于1500英尺
少量云层高于1700英尺, 积雨云.
多云层高于4000英尺
雷暴, 雨,

TAF: VVCT 281700Z 2818/2918 VRB03KT 9999 SCT017 SCT040 BECMG 2900/2901 23010KT TEMPO 2904/2909 4000 TSRA SCT015 FEW017CB BKN040

超过4000个机场的气象观测和天气预报(METAR&TAF报告)。

可查询的气象台以黄色和红色小点在地图上表示。

将鼠标移到小点上方,可查看气象台名称。

然后点击查看天气观测和预报。

如需切换地图:点击带黑十字的绿色按钮放大地图;点击带横线的绿色按钮缩小地图;或者点击绿色箭头查看邻近地区的地图。


METAR-TAF: